Flight Track Log - Related Links

Times and Time Zones

All times are in EDT time to prevent confusion due to time zone crossing. See the N7219U flight status page for this flight to view local times or setup timezone preferences in your user account.

Time Position Orientation Groundspeed Altitude Reporting Facility
EDT Latitude Longitude Course Direction KTS MPH feet Rate Location/Type
Tue 06:52:05 PM 35.8383 -87.3431 110° East 145 167 3,200  Level Memphis Center
Tue 06:53:05 PM 35.8292 -87.3050 107° East 120 138 3,900 700 Climbing Memphis Center
Tue 06:54:05 PM 35.8197 -87.2694 108° East 112 129 4,600 750 Climbing Memphis Center
Tue 06:55:05 PM 35.8128 -87.2339 104° East 112 129 5,400 700 Climbing Memphis Center
Tue 06:56:00 PM 35.8009 -87.2328 109° East  Level Estimated
Tue 06:56:05 PM 35.8056 -87.1958 103° East 112 129 6,000  Level Memphis Center
Tue 06:57:00 PM 35.7888 -87.1919 110° East  Level FlightAware Approximate
Tue 06:57:05 PM 35.8003 -87.1578 100° East 112 129 6,700  Level Memphis Center
Tue 06:58:05 PM 35.7911 -87.1197 107° East 107 123 7,300 550 Climbing Memphis Center
Tue 06:59:05 PM 35.7839 -87.0842 104° East 107 123 7,800 550 Climbing Memphis Center
Tue 07:00:05 PM 35.7806 -87.0433 96° East 107 123 8,400 500 Climbing Memphis Center
Tue 07:01:05 PM 35.7736 -87.0103 105° East 107 123 8,800 400 Climbing Memphis Center
Tue 07:02:05 PM 35.7661 -86.9722 104° East 107 123 9,200 400 Climbing Memphis Center
Tue 07:03:05 PM 35.7589 -86.9317 102° East 117 135 9,600 400 Climbing Memphis Center
Tue 07:04:05 PM 35.7517 -86.8961 104° East 127 146 10,000 400 Climbing Memphis Center
Tue 07:05:05 PM 35.7464 -86.8556 99° East 122 140 10,400 400 Climbing Memphis Center
Tue 07:06:05 PM 35.7389 -86.8200 105° East 117 135 10,800 300 Climbing Memphis Center
Tue 07:07:05 PM 35.7336 -86.7792 99° East 112 129 11,000 100 Climbing Memphis Center
Tue 07:08:05 PM 35.7239 -86.7286 103° East 126 145 11,000  Level Memphis Center
Tue 07:09:05 PM 35.7119 -86.6753 105° East 143 165 11,000  Level Memphis Center
Tue 07:10:05 PM 35.7019 -86.6247 104° East 150 173 11,000  Level Memphis Center
Tue 07:11:05 PM 35.6922 -86.5739 103° East 150 173 11,000  Level Memphis Center
Tue 07:12:05 PM 35.6822 -86.5208 103° East 150 173 11,000  Level Memphis Center
Tue 07:13:05 PM 35.6722 -86.4675 103° East 150 173 11,000  Level Memphis Center
Tue 07:14:05 PM 35.6644 -86.4169 101° East 150 173 11,000  Level Memphis Center
Tue 07:15:05 PM 35.6564 -86.3661 101° East 150 173 11,000  Level Memphis Center
Tue 07:16:05 PM 35.6464 -86.3103 102° East 155 178 11,000  Level Memphis Center
Tue 07:17:05 PM 35.6364 -86.2597 104° East 155 178 11,000  Level Memphis Center
Tue 07:18:05 PM 35.6281 -86.2039 100° East 155 178 11,000  Level Memphis Center
Tue 07:19:05 PM 35.6161 -86.1561 107° East 160 184 11,000  Level Memphis Center
Tue 07:20:05 PM 35.6081 -86.1028 101° East 160 184 11,000  Level Memphis Center
Tue 07:21:05 PM 35.5981 -86.0522 104° East 160 184 11,000  Level Memphis Center
Tue 07:22:05 PM 35.5878 -85.9992 103° East 160 184 11,000  Level Memphis Center
Tue 07:23:05 PM 35.5778 -85.9514 104° East 155 178 11,000  Level Memphis Center
Tue 07:24:05 PM 35.5697 -85.8981 101° East 155 178 11,000  Level Memphis Center
Tue 07:25:05 PM 35.5592 -85.8425 103° East 155 178 11,000  Level Memphis Center
Tue 07:26:05 PM 35.5492 -85.7919 104° East 155 178 11,000  Level Memphis Center
Tue 07:27:05 PM 35.5408 -85.7414 101° East 155 178 11,000  Level Memphis Center
Tue 07:28:05 PM 35.5306 -85.6886 103° East 155 178 11,000  Level Memphis Center
Tue 07:29:05 PM 35.5203 -85.6381 104° East 155 178 11,000  Level Memphis Center
Tue 07:30:05 PM 35.5100 -85.5875 104° East 155 178 11,000  Level Memphis Center
Tue 07:31:05 PM 35.4997 -85.5372 104° East 160 184 11,000  Level Memphis Center
Tue 07:32:05 PM 35.4894 -85.4869 104° East 160 184 11,000 38 Level Memphis Center
Tue 07:33:44 PM 35.4750 -85.4006 102° East 156 180 11,100 38 Climbing Atlanta Center
Tue 07:34:44 PM 35.4650 -85.3519 104° East 151 174 11,100 -50 Level Atlanta Center
Tue 07:35:44 PM 35.4553 -85.3008 103° East 146 168 11,000 -50 Descending Atlanta Center
Tue 07:36:44 PM 35.4453 -85.2497 103° East 146 168 11,000  Level Atlanta Center
Tue 07:37:44 PM 35.4353 -85.1986 103° East 146 168 11,000  Level Atlanta Center
Tue 07:38:44 PM 35.4253 -85.1475 103° East 146 168 11,000  Level Atlanta Center
Tue 07:39:44 PM 35.4175 -85.0964 101° East 146 168 11,000  Level Atlanta Center
Tue 07:40:44 PM 35.4053 -85.0478 107° East 146 168 11,000  Level Atlanta Center
Tue 07:41:44 PM 35.3953 -84.9967 103° East 146 168 11,000  Level Atlanta Center
Tue 07:42:45 PM 35.3875 -84.9456 101° East 146 168 11,000  Level Atlanta Center
Tue 07:43:44 PM 35.3772 -84.8947 104° East 146 168 11,000  Level Atlanta Center
Tue 07:44:44 PM 35.3672 -84.8436 103° East 146 168 11,000  Level Atlanta Center
Tue 07:45:44 PM 35.3572 -84.7925 103° East 146 168 11,000  Level Atlanta Center
Tue 07:46:45 PM 35.3469 -84.7414 104° East 146 168 11,000  Level Atlanta Center
Tue 07:47:44 PM 35.3369 -84.6931 104° East 146 168 11,000  Level Atlanta Center
Tue 07:48:45 PM 35.3267 -84.6419 104° East 146 168 11,000  Level Atlanta Center
Tue 07:49:45 PM 35.3164 -84.5911 104° East 146 168 11,000  Level Atlanta Center
Tue 07:50:44 PM 35.3064 -84.5400 103° East 146 168 11,000  Level Atlanta Center
Tue 07:51:44 PM 35.2939 -84.4917 108° East 146 168 11,000  Level Atlanta Center
Tue 07:52:44 PM 35.2858 -84.4408 101° East 146 168 11,000  Level Atlanta Center
Tue 07:53:44 PM 35.2733 -84.3897 107° East 151 174 11,000  Level Atlanta Center
Tue 07:54:44 PM 35.2631 -84.3389 104° East 151 174 11,000  Level Atlanta Center
Tue 07:55:45 PM 35.2528 -84.2856 103° East 151 174 11,000  Level Atlanta Center
Tue 07:56:44 PM 35.2444 -84.2372 102° East 151 174 11,000  Level Atlanta Center
Tue 07:57:45 PM 35.2342 -84.1889 105° East 151 174 11,000  Level Atlanta Center
Tue 07:58:44 PM 35.2239 -84.1406 105° East 151 174 11,000  Level Atlanta Center
Tue 07:59:44 PM 35.2156 -84.0894 101° East 151 174 11,000  Level Atlanta Center
Tue 08:00:45 PM 35.2050 -84.0389 104° East 151 174 11,000  Level Atlanta Center
Tue 08:01:44 PM 35.1925 -83.9881 107° East 151 174 11,000  Level Atlanta Center
Tue 08:02:44 PM 35.1819 -83.9372 104° East 151 174 11,000  Level Atlanta Center
Tue 08:03:44 PM 35.1717 -83.8864 104° East 151 174 11,000  Level Atlanta Center
Tue 08:04:44 PM 35.1611 -83.8331 104° East 151 174 11,000  Level Atlanta Center
Tue 08:05:44 PM 35.1506 -83.7822 104° East 151 174 11,000  Level Atlanta Center
Tue 08:06:44 PM 35.1400 -83.7314 104° East 151 174 11,000  Level Atlanta Center
Tue 08:07:45 PM 35.1314 -83.6781 101° East 151 174 11,000  Level Atlanta Center
Tue 08:08:44 PM 35.1189 -83.6300 108° East 151 174 11,000  Level Atlanta Center
Tue 08:09:45 PM 35.1103 -83.5792 102° East 151 174 11,000  Level Atlanta Center
Tue 08:10:44 PM 35.0975 -83.5286 107° East 157 181 11,000  Level Atlanta Center
Tue 08:11:44 PM 35.0869 -83.4803 105° East 152 175 11,000  Level Atlanta Center
Tue 08:12:45 PM 35.0761 -83.4272 104° East 152 175 11,000  Level Atlanta Center
Tue 08:13:44 PM 35.0656 -83.3817 106° East 152 175 11,000  Level Atlanta Center
Tue 08:14:44 PM 35.0547 -83.3308 105° East 147 169 11,000  Level Atlanta Center
Tue 08:15:45 PM 35.0461 -83.2778 101° East 147 169 11,000 50 Level Atlanta Center
Tue 08:16:45 PM 35.0333 -83.2269 107° East 152 175 11,100 50 Climbing Atlanta Center
Tue 08:17:45 PM 35.0225 -83.1789 105° East 147 169 11,100  Level Atlanta Center
Tue 08:18:44 PM 35.0139 -83.1333 103° East 147 169 11,100  Level Atlanta Center
Tue 08:19:45 PM 35.0031 -83.0803 104° East 153 176 11,100  Level Atlanta Center
Tue 08:20:44 PM 34.9922 -83.0322 105° East 153 176 11,100  Level Atlanta Center
Tue 08:21:45 PM 34.9792 -82.9842 108° East 142 163 11,100 -500 Level Atlanta Center
Tue 08:22:44 PM 34.9725 -82.9183 97° East 161 185 10,100 -857 Descending Atlanta Center
Tue 08:23:44 PM 34.9844 -82.8600 76° East 171 197 9,400 -595 Descending Atlanta Center
Tue 08:24:45 PM 34.9964 -82.8039 75° East 177 204 8,900 -550 Descending Atlanta Center
Tue 08:25:44 PM 34.9958 -82.7481 91° East 177 204 8,300 -600 Descending Atlanta Center
Tue 08:26:45 PM 34.9972 -82.6900 88° East 171 197 7,700 -645 Descending Atlanta Center
Tue 08:27:45 PM 35.0008 -82.6342 85° East 171 197 7,000 -700 Descending Atlanta Center
Tue 08:29:00 PM 34.9713 -82.5839 126° Southeast  Level FlightAware Approximate
Tue 08:36:00 PM 34.8479 -82.3500 105° East  Level Estimated
Tue 08:37:00 PM 34.8479 -82.3500 105° East  Level Estimated
Tue 08:38:00 PM 34.8479 -82.3500 105° East  Level Estimated
Tue 08:39:00 PM 34.8479 -82.3500 105° East  Level Estimated
Tue 08:40:00 PM 34.8479 -82.3500 105° East  Level Estimated
Tue 08:41:00 PM 34.8479 -82.3500 105° East  Level Estimated
Tue 08:42:00 PM 34.8479 -82.3500 105° East  Level Estimated
Tue 08:43:00 PM 34.8479 -82.3500 105° East  Level Estimated
Tue 08:44:00 PM 34.8479 -82.3500 105° East  Level Estimated

Login

Don't have an account? Register now (free) for customized features, flight alerts, and more!